Time;durP1;ratioP1;P1;durP2;ratioP2;P2;SDS_P1;SDS_P2;PMS_P1;PMS_P2;Temp;Humidity;BMP_temperature;BMP_pressure;BME280_temperature;BME280_humidity;BME280_pressure;Samples;Min_cycle;Max_cycle;Signal;HPM_P1;HPM_P2
2024/01/12 00:00:43;;;;;;;24.92;12.32;;;;;;;-0.70;85.42;100277.16;5025090;28;20095;-78
2024/01/12 00:03:09;;;;;;;27.48;13.60;;;;;;;-0.82;85.14;100272.06;5029793;28;21700;-77
2024/01/12 00:05:35;;;;;;;28.08;12.85;;;;;;;-0.69;85.34;100277.00;5033244;28;20033;-78
2024/01/12 00:08:00;;;;;;;29.58;13.95;;;;;;;-0.70;85.05;100274.53;5030231;28;20065;-77
2024/01/12 00:10:26;;;;;;;27.85;13.73;;;;;;;-0.68;85.70;100277.81;5026539;28;20168;-78
2024/01/12 00:12:51;;;;;;;28.20;13.35;;;;;;;-0.76;85.56;100278.53;5028677;28;20029;-78
2024/01/12 00:15:16;;;;;;;26.05;13.30;;;;;;;-0.65;85.37;100280.16;5026587;28;20453;-76
2024/01/12 00:17:42;;;;;;;25.55;12.30;;;;;;;-0.68;85.38;100273.41;5029293;28;20087;-78
2024/01/12 00:20:08;;;;;;;27.20;13.02;;;;;;;-0.63;84.52;100273.81;5027214;28;20036;-77
2024/01/12 00:22:33;;;;;;;29.60;13.45;;;;;;;-0.57;85.03;100277.66;5018412;28;20040;-77
2024/01/12 00:24:58;;;;;;;26.83;13.10;;;;;;;-0.64;84.52;100263.47;5027623;28;20026;-77
2024/01/12 00:27:24;;;;;;;24.25;12.57;;;;;;;-0.62;84.21;100267.59;5024710;28;20038;-77
2024/01/12 00:29:49;;;;;;;21.90;12.77;;;;;;;-0.62;84.24;100267.59;5024635;28;20122;-77
2024/01/12 00:32:14;;;;;;;23.52;14.20;;;;;;;-0.56;84.84;100268.81;5026917;28;20675;-77
2024/01/12 00:34:40;;;;;;;22.70;13.50;;;;;;;-0.64;84.88;100268.72;5024222;28;20598;-77
2024/01/12 00:37:05;;;;;;;28.63;14.45;;;;;;;-0.63;85.40;100265.94;5028724;28;20091;-77
2024/01/12 00:39:32;;;;;;;30.30;14.07;;;;;;;-0.69;84.60;100263.88;5029160;28;20029;-77
2024/01/12 00:41:57;;;;;;;26.10;13.57;;;;;;;-0.71;85.22;100263.22;5024038;28;20083;-76
2024/01/12 00:44:22;;;;;;;21.65;12.05;;;;;;;-0.74;86.45;100271.34;5027685;28;20029;-77
2024/01/12 00:46:51;;;;;;;24.13;13.13;;;;;;;-0.63;85.41;100263.31;5028600;28;20034;-76
2024/01/12 00:49:17;;;;;;;28.08;14.07;;;;;;;-0.59;84.31;100263.88;5028674;28;20486;-77
2024/01/12 00:51:43;;;;;;;23.42;12.18;;;;;;;-0.63;84.58;100265.13;5027992;28;20037;-78
2024/01/12 00:54:09;;;;;;;18.73;11.95;;;;;;;-0.63;84.81;100263.31;5028728;28;20037;-77
2024/01/12 00:56:34;;;;;;;24.67;11.13;;;;;;;-0.60;84.49;100265.66;5026006;28;22084;-76
2024/01/12 00:58:59;;;;;;;23.73;13.52;;;;;;;-0.59;85.08;100266.50;5023384;28;20034;-76
2024/01/12 01:01:25;;;;;;;22.38;12.25;;;;;;;-0.69;85.95;100258.66;5029397;28;20044;-77
2024/01/12 01:03:50;;;;;;;29.25;12.60;;;;;;;-0.57;85.14;100275.03;5027779;28;20394;-77
2024/01/12 01:06:15;;;;;;;26.33;11.95;;;;;;;-0.60;84.81;100273.53;5031485;28;20029;-75
2024/01/12 01:08:41;;;;;;;23.58;12.40;;;;;;;-0.44;83.97;100268.53;5026503;28;20057;-77
2024/01/12 01:11:06;;;;;;;21.58;10.82;;;;;;;-0.43;83.75;100257.03;5025028;28;20033;-77
2024/01/12 01:13:32;;;;;;;21.42;11.27;;;;;;;-0.54;83.98;100253.75;5022789;28;20121;-78
2024/01/12 01:15:57;;;;;;;24.55;12.15;;;;;;;-0.50;84.69;100257.78;5027707;28;20025;-77
2024/01/12 01:18:23;;;;;;;21.45;11.82;;;;;;;-0.47;84.20;100260.94;5028330;28;20056;-77
2024/01/12 01:20:48;;;;;;;26.52;12.40;;;;;;;-0.50;83.75;100250.72;5032470;28;20525;-77
2024/01/12 01:23:13;;;;;;;23.67;11.05;;;;;;;-0.45;83.77;100261.59;5031950;28;20036;-77
2024/01/12 01:25:39;;;;;;;27.45;13.10;;;;;;;-0.45;83.93;100261.59;5028896;28;20041;-77
2024/01/12 01:28:04;;;;;;;29.30;13.57;;;;;;;-0.55;84.50;100267.84;5029088;28;20566;-77
2024/01/12 01:30:30;;;;;;;25.60;13.48;;;;;;;-0.41;84.07;100265.59;5029719;28;20079;-79
2024/01/12 01:32:55;;;;;;;24.67;12.13;;;;;;;-0.48;83.98;100266.31;5031425;28;20025;-78
2024/01/12 01:35:21;;;;;;;24.20;13.75;;;;;;;-0.38;84.19;100264.47;5025337;28;20041;-77
2024/01/12 01:37:46;;;;;;;29.85;14.23;;;;;;;-0.50;84.03;100266.44;5028745;28;20390;-77
2024/01/12 01:40:12;;;;;;;30.92;14.50;;;;;;;-0.44;84.59;100268.53;5028391;28;20033;-78
2024/01/12 01:42:38;;;;;;;28.25;14.02;;;;;;;-0.47;84.47;100267.97;5030542;28;20042;-77
2024/01/12 01:45:04;;;;;;;31.95;14.02;;;;;;;-0.39;84.41;100274.13;5030875;28;20032;-77
2024/01/12 01:47:30;;;;;;;25.45;13.88;;;;;;;-0.43;83.86;100278.03;5037826;28;20112;-78
2024/01/12 01:49:56;;;;;;;27.80;12.52;;;;;;;-0.60;85.13;100286.63;5032664;28;20490;-76
2024/01/12 01:52:25;;;;;;;27.50;13.30;;;;;;;-0.76;87.49;100276.75;5027292;28;20187;-77
2024/01/12 01:54:52;;;;;;;31.58;14.52;;;;;;;-0.58;86.13;100273.38;5028880;28;20378;-76
2024/01/12 01:57:17;;;;;;;29.38;14.05;;;;;;;-0.45;85.18;100271.25;5031504;28;20485;-77
2024/01/12 01:59:44;;;;;;;25.58;12.93;;;;;;;-0.43;83.95;100277.19;5031940;28;20084;-76
2024/01/12 02:02:10;;;;;;;22.25;11.20;;;;;;;-0.60;85.31;100278.78;5027424;28;20044;-76
2024/01/12 02:04:35;;;;;;;23.98;11.65;;;;;;;-0.85;88.20;100290.69;5024381;28;20025;-77
2024/01/12 02:07:03;;;;;;;28.30;14.40;;;;;;;-0.74;87.69;100294.94;5028690;28;20073;-76
2024/01/12 02:09:31;;;;;;;23.55;12.68;;;;;;;-0.60;85.66;100284.00;5028910;28;20037;-77
2024/01/12 02:11:57;;;;;;;27.33;13.27;;;;;;;-0.57;85.03;100275.88;5025948;28;20509;-76
2024/01/12 02:14:22;;;;;;;26.02;14.85;;;;;;;-0.78;87.40;100288.31;5027245;28;20029;-76
2024/01/12 02:16:47;;;;;;;26.05;13.07;;;;;;;-0.78;88.07;100288.31;5030883;28;20041;-77
2024/01/12 02:19:13;;;;;;;28.27;12.82;;;;;;;-0.64;86.64;100285.28;5031285;28;20506;-76
2024/01/12 02:21:38;;;;;;;28.95;15.88;;;;;;;-0.77;87.53;100295.22;5030077;28;20040;-79
2024/01/12 02:24:04;;;;;;;24.38;11.80;;;;;;;-0.70;87.10;100300.75;5034545;28;20108;-79
2024/01/12 02:26:29;;;;;;;25.25;12.10;;;;;;;-0.65;87.02;100280.97;5031556;28;20474;-78
2024/01/12 02:28:55;;;;;;;24.83;13.40;;;;;;;-0.76;87.71;100297.72;5022966;28;20037;-77
2024/01/12 02:31:20;;;;;;;29.25;14.40;;;;;;;-1.02;90.16;100304.50;5030376;28;20025;-77
2024/01/12 02:33:48;;;;;;;25.70;13.75;;;;;;;-1.14;92.04;100299.53;5026413;28;20033;-77
2024/01/12 02:36:14;;;;;;;30.92;14.30;;;;;;;-0.90;90.28;100300.78;5031671;28;20041;-77
2024/01/12 02:38:39;;;;;;;29.75;14.48;;;;;;;-0.97;89.53;100301.47;5030413;28;20029;-78
2024/01/12 02:41:04;;;;;;;36.63;14.93;;;;;;;-1.14;91.38;100296.94;5026616;28;20026;-78
2024/01/12 02:43:30;;;;;;;28.45;13.13;;;;;;;-0.84;89.00;100291.50;5031061;28;20034;-78
2024/01/12 02:45:55;;;;;;;24.45;11.70;;;;;;;-0.76;88.23;100296.88;5026483;28;20084;-79
2024/01/12 02:48:21;;;;;;;23.85;13.32;;;;;;;-0.77;87.48;100290.00;5031441;28;20037;-77
2024/01/12 02:50:46;;;;;;;26.58;11.38;;;;;;;-0.56;86.06;100281.94;5029689;28;20040;-76
2024/01/12 02:53:12;;;;;;;23.70;11.50;;;;;;;-0.80;87.46;100291.09;5029817;28;20259;-78
2024/01/12 02:55:37;;;;;;;24.40;12.13;;;;;;;-0.78;87.88;100267.34;5027817;28;20127;-78
2024/01/12 02:58:02;;;;;;;22.88;12.27;;;;;;;-0.88;88.85;100282.28;5032283;28;20029;-79
2024/01/12 03:00:30;;;;;;;20.50;11.32;;;;;;;-1.11;90.63;100280.91;5028381;28;20035;-78
2024/01/12 03:02:56;;;;;;;27.00;12.20;;;;;;;-1.05;91.46;100285.63;5025991;28;20037;-80
2024/01/12 03:05:21;;;;;;;21.92;12.48;;;;;;;-1.15;91.93;100280.38;5032668;28;20042;-78
2024/01/12 03:07:46;;;;;;;27.92;13.63;;;;;;;-0.89;90.16;100278.00;5030827;28;20034;-78
2024/01/12 03:10:12;;;;;;;25.48;11.63;;;;;;;-0.82;88.51;100276.47;5027484;28;20036;-76
2024/01/12 03:12:37;;;;;;;23.55;12.93;;;;;;;-0.79;88.46;100271.75;5030750;28;20036;-78
2024/01/12 03:15:03;;;;;;;28.00;11.60;;;;;;;-0.91;90.79;100266.84;5028592;28;20037;-79
2024/01/12 03:17:28;;;;;;;25.00;12.25;;;;;;;-0.96;91.05;100288.22;5024137;28;20074;-78
2024/01/12 03:19:53;;;;;;;25.55;11.30;;;;;;;-0.91;90.10;100274.69;5029037;28;20094;-78
2024/01/12 03:22:18;;;;;;;26.42;12.52;;;;;;;-0.76;88.65;100281.97;5025654;28;20056;-78
2024/01/12 03:24:44;;;;;;;30.08;13.82;;;;;;;-0.57;86.57;100280.28;5027658;28;20371;-78
2024/01/12 03:27:09;;;;;;;28.48;14.18;;;;;;;-0.96;90.15;100292.66;5024366;28;20037;-78
2024/01/12 03:29:34;;;;;;;25.70;13.70;;;;;;;-1.15;92.17;100290.00;5025970;28;20030;-77
2024/01/12 03:32:00;;;;;;;28.55;13.93;;;;;;;-1.02;92.00;100287.94;5023802;28;20402;-77
2024/01/12 03:34:25;;;;;;;20.45;10.38;;;;;;;-0.54;88.65;100267.72;5023348;28;20041;-78
2024/01/12 03:36:51;;;;;;;20.50;11.70;;;;;;;-0.47;86.64;100260.94;5027097;28;20029;-78
2024/01/12 03:39:16;;;;;;;20.92;10.95;;;;;;;-0.38;85.94;100260.06;5026913;28;20033;-79
2024/01/12 03:41:41;;;;;;;21.25;11.93;;;;;;;-0.46;86.21;100254.69;5023637;28;20039;-79
2024/01/12 03:44:06;;;;;;;21.98;10.93;;;;;;;-0.39;85.67;100255.78;5021422;28;20025;-79
2024/01/12 03:46:32;;;;;;;19.90;11.35;;;;;;;-0.34;84.59;100250.94;5027468;28;20033;-77
2024/01/12 03:48:57;;;;;;;21.60;11.45;;;;;;;-0.45;85.54;100245.88;5029228;28;20036;-79
2024/01/12 03:51:23;;;;;;;26.00;11.82;;;;;;;-0.56;86.54;100253.91;5034162;28;20383;-78
2024/01/12 03:53:48;;;;;;;27.00;12.07;;;;;;;-0.62;87.53;100251.03;5031083;28;20048;-78
2024/01/12 03:56:14;;;;;;;20.63;11.07;;;;;;;-0.39;85.93;100247.91;5033062;28;20905;-77
2024/01/12 03:58:39;;;;;;;21.15;10.85;;;;;;;-0.39;85.42;100239.22;5030225;28;20029;-77
2024/01/12 04:01:07;;;;;;;22.17;11.15;;;;;;;-0.26;84.92;100243.16;5028244;28;20390;-78
2024/01/12 04:03:32;;;;;;;23.77;10.90;;;;;;;-0.29;85.05;100232.97;5028986;28;20747;-77
2024/01/12 04:05:59;;;;;;;19.77;10.77;;;;;;;-0.26;85.11;100229.22;5024359;28;20022;-77
2024/01/12 04:08:24;;;;;;;21.42;10.52;;;;;;;-0.32;84.42;100229.81;5021535;28;20074;-78
2024/01/12 04:10:49;;;;;;;20.63;9.88;;;;;;;-0.45;85.93;100227.53;5028317;28;20037;-78
2024/01/12 04:13:15;;;;;;;20.02;10.50;;;;;;;-0.31;85.28;100234.09;5032186;28;20040;-78
2024/01/12 04:15:40;;;;;;;20.70;12.00;;;;;;;-0.40;85.03;100234.94;5033344;28;20029;-78
2024/01/12 04:18:05;;;;;;;23.15;11.15;;;;;;;-0.36;85.20;100225.81;5032011;28;20099;-77
2024/01/12 04:20:31;;;;;;;21.33;10.27;;;;;;;-0.43;85.17;100219.50;5030065;28;20026;-78
2024/01/12 04:22:56;;;;;;;19.48;10.70;;;;;;;-0.48;86.49;100221.75;5029506;28;20493;-77
2024/01/12 04:25:21;;;;;;;25.80;10.00;;;;;;;-0.49;86.51;100215.66;5031473;28;20037;-77
2024/01/12 04:27:47;;;;;;;18.80;10.48;;;;;;;-0.83;88.82;100217.19;5030398;28;20056;-78
2024/01/12 04:30:12;;;;;;;21.00;10.73;;;;;;;-0.76;89.15;100236.59;5027135;28;20033;-79
2024/01/12 04:32:38;;;;;;;25.20;13.02;;;;;;;-0.46;86.53;100227.66;5025072;28;20482;-77
2024/01/12 04:35:03;;;;;;;19.67;11.07;;;;;;;-0.40;85.58;100216.59;5030306;28;20029;-77
2024/01/12 04:37:29;;;;;;;23.73;12.10;;;;;;;-0.32;85.38;100209.66;5025777;28;20034;-77
2024/01/12 04:39:54;;;;;;;22.00;11.50;;;;;;;-0.35;84.99;100220.41;5029110;28;20117;-75
2024/01/12 04:42:19;;;;;;;29.92;14.80;;;;;;;-0.52;86.37;100226.44;5017408;28;20510;-77
2024/01/12 04:44:45;;;;;;;27.40;13.00;;;;;;;-1.00;90.13;100237.06;5024779;28;20502;-77
2024/01/12 04:47:10;;;;;;;33.58;15.55;;;;;;;-1.40;92.77;100240.84;5023045;28;20491;-77
2024/01/12 04:49:35;;;;;;;32.30;14.43;;;;;;;-1.34;95.02;100248.13;5029523;28;20112;-77
2024/01/12 04:52:01;;;;;;;30.92;14.10;;;;;;;-1.21;94.67;100244.28;5028000;28;20040;-77
2024/01/12 04:54:26;;;;;;;31.70;14.40;;;;;;;-0.98;91.87;100247.38;5030614;28;20049;-77
2024/01/12 04:56:51;;;;;;;34.65;14.98;;;;;;;-1.24;93.70;100254.19;5032012;28;20037;-78
2024/01/12 04:59:17;;;;;;;25.08;12.82;;;;;;;-1.00;91.90;100246.72;5030361;28;20055;-78
2024/01/12 05:01:42;;;;;;;32.10;12.40;;;;;;;-0.94;91.28;100256.66;5028276;28;20029;-79
2024/01/12 05:04:08;;;;;;;27.63;12.52;;;;;;;-0.65;88.95;100251.31;5027631;28;20493;-79
2024/01/12 05:06:33;;;;;;;31.77;15.32;;;;;;;-0.97;90.71;100257.75;5029149;28;20061;-75
2024/01/12 05:08:58;;;;;;;33.40;15.90;;;;;;;-1.08;92.82;100265.75;5027539;28;20025;-76
2024/01/12 05:11:25;;;;;;;31.75;14.77;;;;;;;-1.34;93.98;100269.91;5026930;28;20075;-75
2024/01/12 05:13:51;;;;;;;28.77;14.85;;;;;;;-1.08;92.63;100263.16;5024792;28;20052;-76
2024/01/12 05:16:16;;;;;;;28.98;12.88;;;;;;;-0.70;89.50;100259.63;5026752;28;20029;-76
2024/01/12 05:18:42;;;;;;;23.25;12.80;;;;;;;-0.91;90.71;100262.44;5028810;28;20072;-77
2024/01/12 05:21:08;;;;;;;36.08;15.90;;;;;;;-1.31;92.69;100260.97;5026026;28;20057;-76
2024/01/12 05:23:33;;;;;;;31.05;14.40;;;;;;;-1.11;93.31;100263.41;5027576;28;20021;-76
2024/01/12 05:25:58;;;;;;;30.42;16.60;;;;;;;-1.31;94.25;100268.81;5029528;28;20037;-75
2024/01/12 05:28:24;;;;;;;27.95;13.85;;;;;;;-0.86;91.79;100251.53;5024101;28;20061;-76
2024/01/12 05:30:49;;;;;;;31.27;14.68;;;;;;;-0.51;88.62;100250.88;5025279;28;20443;-76
2024/01/12 05:33:14;;;;;;;29.77;15.52;;;;;;;-0.49;87.25;100246.31;5023890;28;20461;-76
2024/01/12 05:35:40;;;;;;;24.85;13.70;;;;;;;-0.60;88.21;100246.47;5029491;28;20033;-76
2024/01/12 05:38:06;;;;;;;27.13;13.13;;;;;;;-0.39;87.21;100245.28;5029481;28;20033;-75
2024/01/12 05:40:31;;;;;;;29.20;13.68;;;;;;;-0.42;86.80;100239.53;5030462;28;20048;-77
2024/01/12 05:42:56;;;;;;;31.13;12.90;;;;;;;-0.27;86.26;100241.53;5029396;28;20439;-76
2024/01/12 05:45:22;;;;;;;36.40;14.85;;;;;;;-0.31;85.62;100221.81;5031180;28;20029;-77
2024/01/12 05:47:47;;;;;;;24.75;13.38;;;;;;;-0.36;85.82;100215.34;5031076;28;20517;-77
2024/01/12 05:50:13;;;;;;;34.78;17.73;;;;;;;-0.53;86.88;100230.03;5030460;28;20143;-76
2024/01/12 05:52:38;;;;;;;41.47;16.23;;;;;;;-0.60;87.62;100239.44;5029431;28;20052;-77
2024/01/12 05:55:04;;;;;;;30.02;15.13;;;;;;;-0.37;86.19;100232.84;5029280;28;20091;-76
2024/01/12 05:57:31;;;;;;;32.78;14.68;;;;;;;-0.40;86.74;100224.47;5028757;28;20082;-74
2024/01/12 05:59:56;;;;;;;34.72;16.60;;;;;;;-0.41;85.92;100234.13;5028481;28;20044;-78
2024/01/12 06:02:21;;;;;;;32.15;14.80;;;;;;;-0.31;85.90;100234.09;5022872;28;20030;-76
2024/01/12 06:04:47;;;;;;;36.00;17.05;;;;;;;-0.29;85.38;100232.97;5021345;28;20044;-77
2024/01/12 06:07:13;;;;;;;32.85;17.15;;;;;;;-0.42;86.18;100229.88;5030082;28;20030;-82
2024/01/12 06:09:40;;;;;;;37.50;18.08;;;;;;;-0.32;85.37;100233.25;5031224;28;20021;-77
2024/01/12 06:12:06;;;;;;;33.13;15.48;;;;;;;-0.30;85.86;100236.56;5026131;28;20021;-76
2024/01/12 06:14:32;;;;;;;33.25;16.38;;;;;;;-0.40;85.78;100224.47;5033627;28;20087;-78
2024/01/12 06:16:57;;;;;;;37.28;17.02;;;;;;;-0.39;86.24;100218.22;5033802;28;20691;-78
2024/01/12 06:19:24;;;;;;;33.58;16.42;;;;;;;-0.38;86.31;100225.16;5032614;28;20172;-77
2024/01/12 06:21:49;;;;;;;35.20;15.55;;;;;;;-0.39;86.39;100218.22;5031791;28;20064;-77
2024/01/12 06:24:14;;;;;;;32.95;15.13;;;;;;;-0.38;86.41;100217.28;5032115;28;20111;-77
2024/01/12 06:26:43;;;;;;;39.42;18.48;;;;;;;-0.40;86.56;100216.59;5031351;28;20037;-77
2024/01/12 06:29:08;;;;;;;33.05;16.55;;;;;;;-0.22;86.03;100218.28;5030528;28;20513;-77
2024/01/12 06:31:33;;;;;;;38.15;17.40;;;;;;;-0.30;85.88;100226.06;5029718;28;20033;-77
2024/01/12 06:33:59;;;;;;;29.88;17.33;;;;;;;-0.37;85.91;100227.63;5028874;28;20026;-77
2024/01/12 06:36:24;;;;;;;34.40;17.67;;;;;;;-0.28;86.03;100224.13;5025452;28;20442;-78
2024/01/12 06:38:50;;;;;;;32.10;15.82;;;;;;;-0.35;86.13;100220.41;5026516;28;20107;-77
2024/01/12 06:41:15;;;;;;;28.95;14.10;;;;;;;-0.38;86.53;100223.34;5025791;28;20044;-77
2024/01/12 06:43:40;;;;;;;31.10;15.68;;;;;;;-0.32;85.79;100233.25;5031116;28;20029;-77
2024/01/12 06:46:06;;;;;;;22.52;13.20;;;;;;;-0.31;85.64;100242.78;5030212;28;20029;-77
2024/01/12 06:48:32;;;;;;;29.13;15.10;;;;;;;-0.39;86.24;100236.59;5032279;28;20437;-77
2024/01/12 06:50:57;;;;;;;27.20;13.88;;;;;;;-0.37;86.31;100230.22;5031523;28;20045;-78
2024/01/12 06:53:22;;;;;;;30.95;15.63;;;;;;;-0.36;86.31;100241.56;5021783;28;20045;-76
2024/01/12 06:55:48;;;;;;;30.88;14.55;;;;;;;-0.34;86.49;100234.38;5023190;28;20087;-77
2024/01/12 06:58:13;;;;;;;24.50;13.48;;;;;;;-0.38;85.93;100233.84;5031105;28;20036;-77
2024/01/12 07:00:38;;;;;;;26.58;14.77;;;;;;;-0.41;86.03;100230.66;5032927;28;20037;-77
2024/01/12 07:03:04;;;;;;;35.47;14.38;;;;;;;-0.41;86.56;100226.25;5030592;28;20104;-77
2024/01/12 07:05:29;;;;;;;25.00;14.13;;;;;;;-0.38;86.66;100239.09;5027678;28;20033;-77
2024/01/12 07:07:55;;;;;;;32.00;14.65;;;;;;;-0.47;86.70;100255.69;5026562;28;20041;-76
2024/01/12 07:10:21;;;;;;;34.92;15.55;;;;;;;-0.29;86.33;100251.34;5026997;28;20029;-78
2024/01/12 07:12:47;;;;;;;28.60;14.75;;;;;;;-0.33;85.92;100246.53;5032570;28;20123;-78
2024/01/12 07:15:13;;;;;;;28.52;14.63;;;;;;;-0.24;85.66;100245.66;5029921;28;20056;-77
2024/01/12 07:17:38;;;;;;;31.15;14.93;;;;;;;-0.22;85.70;100244.53;5031159;28;20037;-77
2024/01/12 07:20:05;;;;;;;35.58;15.60;;;;;;;-0.22;85.45;100244.53;5031312;28;20035;-79
2024/01/12 07:22:31;;;;;;;45.95;19.30;;;;;;;-0.37;86.05;100243.34;5030086;28;20052;-77
2024/01/12 07:24:56;;;;;;;35.33;16.05;;;;;;;-0.28;85.67;100244.28;5030901;28;20033;-77
2024/01/12 07:27:21;;;;;;;38.78;15.68;;;;;;;-0.37;86.62;100245.97;5030863;28;20041;-76
2024/01/12 07:29:47;;;;;;;36.80;16.23;;;;;;;-0.27;85.88;100243.31;5030873;28;20037;-77
2024/01/12 07:32:12;;;;;;;37.75;16.63;;;;;;;-0.28;86.12;100242.47;5028873;28;20030;-78
2024/01/12 07:34:37;;;;;;;37.22;15.73;;;;;;;-0.24;85.46;100251.72;5033952;28;20088;-77
2024/01/12 07:37:03;;;;;;;38.92;17.00;;;;;;;-0.21;85.51;100243.56;5034059;28;20034;-78
2024/01/12 07:39:28;;;;;;;32.75;15.65;;;;;;;-0.21;85.15;100246.19;5032182;28;20045;-77
2024/01/12 07:41:55;;;;;;;39.65;16.20;;;;;;;-0.32;85.70;100235.03;5028631;28;20062;-76
2024/01/12 07:44:20;;;;;;;35.35;16.52;;;;;;;-0.27;85.68;100230.19;5030856;28;20064;-76
2024/01/12 07:46:45;;;;;;;36.20;15.77;;;;;;;-0.26;86.01;100229.22;5028774;28;20459;-78
2024/01/12 07:49:11;;;;;;;37.22;16.23;;;;;;;-0.30;85.66;100231.31;5026942;28;20190;-78
2024/01/12 07:51:36;;;;;;;38.58;17.02;;;;;;;-0.24;86.20;100230.72;5027385;28;20028;-78
2024/01/12 07:54:01;;;;;;;48.88;16.92;;;;;;;-0.23;85.92;100236.81;5023112;28;20032;-77
2024/01/12 07:56:27;;;;;;;41.67;17.58;;;;;;;-0.29;85.68;100242.63;5027558;28;20263;-76
2024/01/12 07:58:52;;;;;;;44.85;17.25;;;;;;;-0.14;85.71;100247.25;5020362;28;20033;-77
2024/01/12 08:01:17;;;;;;;48.53;17.88;;;;;;;-0.11;85.16;100261.91;5016591;28;20111;-77
2024/01/12 08:03:44;;;;;;;38.70;17.40;;;;;;;-0.23;85.38;100258.63;5027658;28;20060;-76
2024/01/12 08:06:10;;;;;;;42.72;15.20;;;;;;;-0.21;85.44;100251.44;5026401;28;20040;-76
2024/01/12 08:08:36;;;;;;;40.50;15.35;;;;;;;-0.19;85.58;100246.88;5028510;28;20837;-76
2024/01/12 08:11:02;;;;;;;34.95;15.52;;;;;;;-0.24;85.81;100250.91;5018587;28;20037;-76
2024/01/12 08:13:27;;;;;;;40.95;16.60;;;;;;;-0.31;86.53;100250.66;5028480;28;20079;-76
2024/01/12 08:15:52;;;;;;;30.88;14.85;;;;;;;-0.28;85.89;100250.34;5028456;28;20573;-75
2024/01/12 08:18:22;;;;;;;39.53;16.50;;;;;;;-0.26;85.95;100251.03;5024272;28;20048;-76
2024/01/12 08:20:48;;;;;;;39.60;16.42;;;;;;;-0.40;86.78;100256.78;5029500;28;20057;-76
2024/01/12 08:23:14;;;;;;;40.17;15.25;;;;;;;-0.24;86.51;100254.34;5029167;28;20061;-76
2024/01/12 08:25:40;;;;;;;38.40;16.05;;;;;;;-0.36;86.45;100239.78;5029061;28;20156;-76
2024/01/12 08:28:05;;;;;;;42.65;16.88;;;;;;;-0.23;86.28;100244.69;5028961;28;20113;-76
2024/01/12 08:30:33;;;;;;;44.03;17.27;;;;;;;-0.31;85.97;100244.59;5021728;28;20533;-76
2024/01/12 08:32:59;;;;;;;31.85;15.60;;;;;;;-0.39;86.98;100257.56;5029871;28;20048;-76
2024/01/12 08:35:26;;;;;;;33.65;14.85;;;;;;;-0.27;86.43;100265.13;5027195;28;20033;-76
2024/01/12 08:37:51;;;;;;;32.55;14.80;;;;;;;-0.23;86.50;100260.41;5030710;28;20516;-77
2024/01/12 08:40:16;;;;;;;32.35;15.63;;;;;;;-0.32;86.07;100249.00;5029844;28;20042;-76
2024/01/12 08:42:42;;;;;;;35.92;16.35;;;;;;;-0.45;87.06;100258.16;5025068;28;20040;-76
2024/01/12 08:45:07;;;;;;;39.67;16.77;;;;;;;-0.29;86.54;100261.84;5028649;28;20032;-76
2024/01/12 08:47:33;;;;;;;28.05;14.13;;;;;;;-0.18;85.86;100266.91;5030190;28;20028;-76
2024/01/12 08:49:58;;;;;;;35.85;14.35;;;;;;;-0.27;86.24;100256.44;5027024;28;20030;-75
2024/01/12 08:52:24;;;;;;;33.88;15.18;;;;;;;-0.30;86.73;100252.28;5028463;28;20032;-76
2024/01/12 08:54:50;;;;;;;39.78;18.15;;;;;;;-0.44;86.54;100249.34;5029638;28;20057;-76
2024/01/12 08:57:15;;;;;;;31.65;15.60;;;;;;;-0.21;86.47;100240.94;5029691;28;20106;-76
2024/01/12 08:59:40;;;;;;;32.45;16.60;;;;;;;-0.20;86.70;100237.31;5027597;28;20167;-76
2024/01/12 09:02:06;;;;;;;31.02;14.88;;;;;;;-0.21;86.18;100238.31;5029211;28;20049;-76
2024/01/12 09:04:31;;;;;;;37.78;15.27;;;;;;;-0.21;86.67;100245.34;5028823;28;20022;-75
2024/01/12 09:06:57;;;;;;;39.10;15.52;;;;;;;-0.05;86.02;100241.16;5021383;28;20034;-76
2024/01/12 09:09:23;;;;;;;31.70;15.45;;;;;;;-0.14;85.80;100234.16;5024383;28;20026;-76
2024/01/12 09:11:48;;;;;;;31.98;15.65;;;;;;;-0.21;86.06;100240.09;5029381;28;20164;-75
2024/01/12 09:14:14;;;;;;;33.58;15.80;;;;;;;-0.26;86.66;100237.09;5027280;28;20124;-76
2024/01/12 09:16:39;;;;;;;32.72;14.38;;;;;;;-0.28;87.04;100233.78;5029425;28;20037;-75
2024/01/12 09:19:04;;;;;;;33.67;16.60;;;;;;;-0.23;86.56;100239.44;5029968;28;20030;-76
2024/01/12 09:21:30;;;;;;;35.78;15.00;;;;;;;-0.39;87.11;100237.44;5029221;28;20064;-76
2024/01/12 09:23:55;;;;;;;30.95;14.55;;;;;;;-0.30;87.28;100231.31;5019859;28;20199;-75
2024/01/12 09:26:20;;;;;;;34.58;15.65;;;;;;;-0.28;87.17;100226.75;5027891;28;20057;-76
2024/01/12 09:28:46;;;;;;;31.17;14.27;;;;;;;-0.50;87.17;100240.22;5018009;28;20026;-76
2024/01/12 09:31:11;;;;;;;35.72;15.52;;;;;;;-0.30;87.54;100246.22;5028965;28;20033;-77
2024/01/12 09:33:36;;;;;;;32.45;14.95;;;;;;;-0.26;86.44;100232.66;5029690;28;20040;-76
2024/01/12 09:36:03;;;;;;;36.38;15.57;;;;;;;-0.28;86.69;100239.03;5028807;28;20441;-76
2024/01/12 09:38:29;;;;;;;37.88;15.77;;;;;;;-0.34;87.01;100248.31;5028803;28;20057;-76
2024/01/12 09:40:54;;;;;;;33.38;16.27;;;;;;;-0.30;86.73;100231.31;5029922;28;20063;-76
2024/01/12 09:43:22;;;;;;;32.75;14.80;;;;;;;-0.17;86.83;100231.81;5030260;28;20029;-76
2024/01/12 09:45:50;;;;;;;33.78;15.88;;;;;;;-0.24;86.56;100225.47;5033482;28;20033;-76
2024/01/12 09:48:15;;;;;;;35.08;16.77;;;;;;;-0.24;86.81;100241.22;5031127;28;20036;-76
2024/01/12 09:50:43;;;;;;;37.50;16.15;;;;;;;-0.09;86.15;100234.50;5027174;28;20041;-76
2024/01/12 09:53:09;;;;;;;36.42;17.05;;;;;;;-0.08;86.39;100236.19;5029317;28;20075;-76
2024/01/12 09:55:34;;;;;;;40.83;18.00;;;;;;;-0.21;86.62;100238.31;5029892;28;20029;-76
2024/01/12 09:58:01;;;;;;;32.58;15.85;;;;;;;-0.31;87.35;100227.06;5027565;28;20538;-76
2024/01/12 10:00:31;;;;;;;35.95;16.60;;;;;;;-0.33;87.03;100236.84;5029887;28;20044;-75
2024/01/12 10:02:58;;;;;;;38.28;16.60;;;;;;;-0.22;87.20;100230.59;5022218;28;20482;-76
2024/01/12 10:05:24;;;;;;;37.20;14.82;;;;;;;-0.27;87.22;100230.19;5030246;28;20398;-75
2024/01/12 10:07:50;;;;;;;34.67;15.57;;;;;;;-0.32;86.75;100209.66;5029033;28;20026;-76
2024/01/12 10:10:15;;;;;;;36.13;14.88;;;;;;;-0.19;86.76;100243.41;5028176;28;20445;-75
2024/01/12 10:12:40;;;;;;;30.85;15.10;;;;;;;-0.16;86.66;100240.50;5024226;28;20376;-76
2024/01/12 10:15:10;;;;;;;30.90;14.55;;;;;;;-0.20;86.73;100231.28;5029477;28;20148;-76
2024/01/12 10:17:35;;;;;;;37.03;16.15;;;;;;;-0.26;87.14;100237.09;5024825;28;20025;-76
2024/01/12 10:20:03;;;;;;;32.72;16.30;;;;;;;-0.16;86.79;100230.84;5029896;28;20047;-76
2024/01/12 10:22:30;;;;;;;37.83;14.93;;;;;;;-0.20;86.76;100237.31;5030968;28;20021;-76
2024/01/12 10:25:00;;;;;;;38.00;15.95;;;;;;;-0.40;87.68;100230.53;5031011;28;20087;-76
2024/01/12 10:27:26;;;;;;;32.83;14.52;;;;;;;-0.32;87.82;100242.91;5030660;28;20033;-76
2024/01/12 10:29:52;;;;;;;32.47;14.23;;;;;;;-0.30;87.62;100243.59;5030610;28;20363;-76
2024/01/12 10:32:21;;;;;;;34.10;15.02;;;;;;;-0.28;87.86;100239.84;5032279;28;20040;-76
2024/01/12 10:34:47;;;;;;;33.33;14.77;;;;;;;-0.28;87.56;100224.13;5031457;28;20108;-75
2024/01/12 10:37:15;;;;;;;39.40;16.17;;;;;;;-0.33;87.93;100234.22;5031442;28;20025;-77
2024/01/12 10:39:43;;;;;;;38.28;15.93;;;;;;;-0.36;87.68;100231.06;5031323;28;20030;-75
2024/01/12 10:42:10;;;;;;;36.13;15.60;;;;;;;-0.23;87.32;100227.16;5029966;28;20577;-75
2024/01/12 10:44:39;;;;;;;27.92;13.73;;;;;;;-0.25;87.54;100212.53;5030938;28;20031;-76
2024/01/12 10:47:20;;;;;;;34.85;15.10;;;;;;;-0.24;87.33;100194.00;5031057;28;20034;-75
2024/01/12 10:49:53;;;;;;;37.50;15.10;;;;;;;-0.24;87.36;100191.38;5024285;28;20044;-78
2024/01/12 10:52:37;;;;;;;37.40;15.80;;;;;;;-0.37;87.81;100188.28;5032266;28;20032;-75
2024/01/12 10:55:10;;;;;;;30.20;13.15;;;;;;;-0.25;87.11;100192.38;5028483;28;20033;-75
2024/01/12 10:57:37;;;;;;;35.08;14.77;;;;;;;-0.30;87.70;100193.75;5029537;28;20462;-77
2024/01/12 11:00:05;;;;;;;37.83;14.85;;;;;;;-0.18;86.96;100192.59;5029980;28;20035;-76
2024/01/12 11:02:31;;;;;;;34.60;14.88;;;;;;;-0.29;88.59;100190.19;5030633;28;20116;-76